Latest Weather Observations for Port Fairy

IDV60801

Issued at 11:31 pm EST Tuesday 1 September 2015 (issued every 30 minutes, with the page automatically refreshed every 10 minutes)

About weather observations | Map of weather stations | Latest weather observations for VIC | Other Formats
Station Details ID: 090175 Name: PORT FAIRY AWS Lat: -38.39 Lon: 142.23 Height: 10.0 m
Data from the previous 72 hours. | See also: Recent months at Port Fairy
Date/Time
EST
Temp
°C
App
Temp
°C
Dew
Point
Rel
Hum
%
Delta-T
°C
Wind Press
QNH
hPa
Press
MSL
hPa
Rain
since 9 am
mm
Dir
 
Spd
km/h
Gust
km/h
Spd
kts
Gust
kts
01/11:30pm 11.9 9.1 7.0 72 2.3 NNE 11 17 6 9 1010.7 1010.7 0.0
01/11:00pm 12.0 9.2 7.1 72 2.4 NE 11 17 6 9 1010.9 1010.9 0.0
01/10:30pm 12.4 9.8 7.7 73 2.3 NE 11 17 6 9 1011.0 1011.0 0.0
01/10:00pm 12.2 9.7 8.1 76 2.0 NE 11 17 6 9 1011.0 1011.0 0.0
01/09:30pm 12.2 10.2 8.7 79 1.7 ENE 9 15 5 8 1011.1 1011.1 0.0
01/09:00pm 12.3 9.9 8.6 78 1.8 ENE 11 15 6 8 1011.3 1011.3 0.0
01/08:30pm 12.4 10.4 8.5 77 1.9 ENE 9 17 5 9 1011.4 1011.4 0.0
01/08:00pm 12.6 10.6 8.7 77 1.9 ENE 9 13 5 7 1011.4 1011.4 0.0
01/07:30pm 13.0 11.5 9.1 77 2.0 ENE 7 11 4 6 1011.6 1011.6 0.0
01/07:00pm 13.3 12.0 9.2 76 2.1 ENE 6 13 3 7 1011.5 1011.5 0.0
01/06:30pm 13.3 11.3 8.8 74 2.3 ENE 9 13 5 7 1011.4 1011.4 0.0
01/06:00pm 13.5 11.5 8.8 73 2.4 ENE 9 17 5 9 1011.4 1011.4 0.0
01/05:30pm 13.8 11.4 8.6 71 2.6 E 11 19 6 10 1011.2 1011.2 0.0
01/05:00pm 13.8 11.4 8.8 72 2.5 E 11 17 6 9 1011.0 1011.0 0.0
01/04:30pm 14.4 12.4 8.8 69 2.8 E 9 13 5 7 1011.3 1011.3 0.0
01/04:00pm 14.7 12.5 8.0 64 3.3 ENE 9 13 5 7 1011.5 1011.5 0.0
01/03:30pm 15.4 13.1 7.4 59 4.0 NE 9 15 5 8 1011.9 1011.9 0.0
01/03:00pm 15.2 12.3 6.5 56 4.2 NE 11 17 6 9 1012.3 1012.3 0.0
01/02:30pm 15.9 13.2 7.4 57 4.2 NNE 11 15 6 8 1012.7 1012.7 0.0
01/02:00pm 15.2 13.3 8.9 66 3.2 E 9 13 5 7 1013.1 1013.1 0.0
01/01:30pm 13.8 11.9 7.6 66 3.0 ENE 7 13 4 7 1013.3 1013.3 0.0
01/01:00pm 13.6 11.3 7.6 67 2.9 E 9 15 5 8 1013.8 1013.8 0.0
01/12:30pm 13.5 11.8 7.5 67 2.9 ENE 6 9 3 5 1014.6 1014.6 0.0
01/12:00pm 12.4 9.9 6.5 67 2.8 NE 9 15 5 8 1015.1 1015.1 0.0
01/11:30am 11.6 9.6 6.1 69 2.6 NNE 6 13 3 7 1015.7 1015.7 0.0
01/11:00am 10.6 7.4 5.2 69 2.5 NE 11 17 6 9 1016.1 1016.1 0.0
01/10:30am 9.9 6.7 4.9 71 2.2 NNE 11 15 6 8 1016.5 1016.5 0.0
01/10:00am 9.3 5.6 4.7 73 2.0 NE 13 19 7 10 1016.7 1016.7 0.0
01/09:30am 8.2 5.4 5.1 81 1.4 NE 9 17 5 9 1016.9 1016.9 0.0
01/09:00am 6.7 3.8 4.9 88 0.8 NE 9 13 5 7 1017.1 1017.1 0.0
01/08:30am 4.8 2.0 3.3 90 0.6 NNE 7 11 4 6 1017.1 1017.1 0.0
01/08:00am 3.9 1.1 2.9 93 0.4 NNE 7 9 4 5 1016.8 1016.8 0.0
01/07:30am 2.6 -0.5 1.6 93 0.4 N 7 9 4 5 1016.7 1016.7 0.0
01/07:00am 1.6 -1.5 0.4 92 0.4 N 6 9 3 5 1016.5 1016.5 0.0
01/06:30am 1.3 -1.8 0.0 91 0.5 N 6 7 3 4 1016.2 1016.2 0.0
01/06:00am 1.5 -1.2 0.2 91 0.5 NNE 4 6 2 3 1016.0 1016.0 0.0
01/05:30am 1.6 -1.5 0.1 90 0.5 NNE 6 6 3 3 1016.1 1016.1 0.0
01/05:00am 1.8 -1.3 0.2 89 0.6 N 6 6 3 3 1016.3 1016.3 0.0
01/04:30am 2.2 -0.9 0.4 88 0.7 N 6 7 3 4 1016.3 1016.3 0.0
01/04:00am 2.7 -0.3 0.6 86 0.8 ENE 6 6 3 3 1016.3 1016.3 0.0
01/03:30am 3.4 0.4 1.0 84 0.9 ENE 6 6 3 3 1016.8 1016.8 0.0
01/03:00am 4.1 1.5 1.1 81 1.2 NNE 4 4 2 2 1017.2 1017.2 0.0
01/02:30am 4.7 2.1 1.2 78 1.4 NNE 4 6 2 3 1017.4 1017.4 0.0
01/02:00am 5.4 2.9 1.5 76 1.5 N 4 6 2 3 1017.9 1017.9 0.0
01/01:30am 6.2 3.4 2.1 75 1.7 N 6 7 3 4 1018.4 1018.4 0.0
01/01:00am 6.5 3.7 2.2 74 1.8 ENE 6 6 3 3 1018.5 1018.5 0.0
01/12:30am 7.4 5.1 2.7 72 2.0 NNE 4 6 2 3 1018.8 1018.8 0.0
01/12:00am 7.7 5.9 3.4 74 1.8 N 2 4 1 2 1019.1 1019.1 0.0
 
Date/Time
EST
Temp
°C
App
Temp
°C
Dew
Point
Rel
Hum
%
Delta-T
°C
Wind Press
QNH
hPa
Press
MSL
hPa
Rain
since 9 am
mm
Dir
 
Spd
km/h
Gust
km/h
Spd
kts
Gust
kts
31/11:30pm 7.7 5.5 3.4 74 1.8 N 4 7 2 4 1019.3 1019.3 0.0
31/11:00pm 7.7 5.1 3.2 73 1.9 NNE 6 7 3 4 1019.4 1019.4 0.0
31/10:30pm 7.8 5.2 3.3 73 1.9 N 6 6 3 3 1019.6 1019.6 0.0
31/10:00pm 8.3 6.8 3.2 70 2.2 CALM 0 6 0 3 1019.7 1019.7 0.0
31/09:30pm 8.4 6.1 2.8 68 2.4 ESE 4 7 2 4 1019.8 1019.8 0.0
31/09:00pm 8.5 6.3 3.1 69 2.3 SE 4 7 2 4 1019.7 1019.7 0.0
31/08:30pm 8.8 7.0 3.2 68 2.4 SSE 2 6 1 3 1019.9 1019.9 0.0
31/08:00pm 8.8 6.6 3.2 68 2.4 ENE 4 6 2 3 1019.7 1019.7 0.0
31/07:30pm 8.9 6.7 3.3 68 2.4 E 4 7 2 4 1019.5 1019.5 0.0
31/07:00pm 8.9 7.5 3.5 69 2.3 CALM 0 2 0 1 1019.3 1019.3 0.0
31/06:30pm 9.2 6.5 3.6 68 2.4 SSE 7 15 4 8 1019.3 1019.3 0.0
31/06:00pm 9.5 7.0 3.7 67 2.5 S 6 13 3 7 1019.2 1019.2 0.0
31/05:30pm 9.7 6.9 3.2 64 2.8 S 7 15 4 8 1019.4 1019.4 0.0
31/05:00pm 10.1 7.4 3.6 64 2.8 S 7 13 4 7 1019.6 1019.6 0.0
31/04:30pm 10.3 7.6 3.6 63 2.9 SW 7 15 4 8 1019.8 1019.8 0.0
31/04:00pm 10.8 8.3 3.8 62 3.1 S 6 9 3 5 1019.9 1019.9 0.0
31/03:30pm 10.7 7.6 3.5 61 3.2 S 9 15 5 8 1020.0 1020.0 0.0
31/03:00pm 10.8 8.0 3.4 60 3.2 S 7 13 4 7 1020.1 1020.1 0.0
31/02:30pm 11.4 8.0 4.2 61 3.2 SSE 11 17 6 9 1020.2 1020.2 0.0
31/02:00pm 11.6 8.2 4.1 60 3.3 S 11 15 6 8 1020.4 1020.4 0.0
31/01:30pm 11.5 8.6 4.7 63 3.1 S 9 17 5 9 1020.6 1020.6 0.0
31/01:00pm 11.3 8.0 4.5 63 3.1 S 11 17 6 9 1021.0 1021.0 0.0
31/12:30pm 11.4 8.9 4.6 63 3.1 S 7 15 4 8 1021.5 1021.5 0.0
31/12:00pm 11.4 8.6 5.1 65 2.9 S 9 15 5 8 1021.8 1021.8 0.0
31/11:30am 11.1 8.3 5.0 66 2.8 SSE 9 15 5 8 1022.0 1022.0 0.0
31/11:00am 10.9 8.0 4.6 65 2.8 SSE 9 13 5 7 1021.9 1021.9 0.0
31/10:30am 10.4 8.2 6.4 76 1.9 SE 7 13 4 7 1022.0 1022.0 0.0
31/10:00am 9.9 8.9 7.5 85 1.1 NW 2 4 1 2 1022.2 1022.2 0.0
31/09:30am 9.5 8.2 7.6 88 0.9 NNW 4 6 2 3 1022.1 1022.1 0.0
31/09:00am 9.2 7.4 7.8 91 0.7 NNW 7 11 4 6 1022.2 1022.2 0.2
31/08:30am 7.6 5.6 6.1 90 0.7 N 6 7 3 4 1022.3 1022.3 0.2
31/08:00am 7.0 5.2 5.2 88 0.8 NNW 4 6 2 3 1022.2 1022.2 0.2
31/07:30am 6.6 4.5 4.1 84 1.1 N 4 6 2 3 1022.0 1022.0 0.2
31/07:00am 7.8 6.2 4.4 79 1.5 WNW 2 4 1 2 1021.8 1021.8 0.2
31/06:30am 8.7 5.9 5.1 78 1.6 S 9 20 5 11 1021.8 1021.8 0.2
31/06:00am 8.6 6.4 5.2 79 1.5 S 6 7 3 4 1021.7 1021.7 0.2
31/05:30am 8.7 5.9 5.3 79 1.5 SSE 9 15 5 8 1021.7 1021.7 0.2
31/05:00am 8.8 5.8 5.9 82 1.3 SSE 11 13 6 7 1021.6 1021.6 0.2
31/04:30am 8.4 6.3 5.7 83 1.2 SSE 6 9 3 5 1021.6 1021.6 0.2
31/04:00am 8.6 6.4 6.1 84 1.1 SE 7 9 4 5 1021.7 1021.7 0.2
31/03:30am 9.3 6.2 5.7 78 1.6 SE 11 19 6 10 1022.0 1022.0 0.2
31/03:00am 9.1 6.6 4.9 75 1.9 SSW 7 9 4 5 1022.3 1022.3 0.2
31/02:30am 8.4 6.0 4.2 75 1.8 S 6 9 3 5 1022.6 1022.6 0.2
31/02:00am 8.8 6.2 4.2 73 2.0 S 7 11 4 6 1023.1 1023.1 0.2
31/01:30am 9.3 6.4 4.9 74 2.0 S 9 17 5 9 1023.5 1023.5 0.2
31/01:00am 9.1 5.9 5.1 76 1.8 SSE 11 15 6 8 1023.6 1023.6 0.2
31/12:30am 9.1 5.8 4.3 72 2.1 SE 11 17 6 9 1023.6 1023.6 0.2
31/12:00am 9.4 6.5 4.6 72 2.1 SSE 9 17 5 9 1023.7 1023.7 0.2
 
Date/Time
EST
Temp
°C
App
Temp
°C
Dew
Point
Rel
Hum
%
Delta-T
°C
Wind Press
QNH
hPa
Press
MSL
hPa
Rain
since 9 am
mm
Dir
 
Spd
km/h
Gust
km/h
Spd
kts
Gust
kts
30/11:30pm 9.5 5.9 5.1 74 2.0 S 13 19 7 10 1024.0 1024.0 0.2
30/11:00pm 8.9 6.6 5.5 79 1.5 SSE 7 19 4 10 1024.3 1024.3 0.2
30/10:30pm 8.7 5.4 6.3 85 1.1 SSE 13 19 7 10 1024.5 1024.5 0.2
30/10:00pm 8.8 6.0 7.1 89 0.8 S 11 19 6 10 1024.7 1024.7 0.2
30/09:30pm 8.6 5.4 6.9 89 0.8 SSW 13 19 7 10 1024.8 1024.8 0.2
30/09:00pm 9.3 5.0 6.9 85 1.1 S 19 32 10 17 1025.1 1025.1 0.0
30/08:30pm 9.7 6.1 5.1 73 2.1 S 13 20 7 11 1024.8 1024.8 0.0
30/08:00pm 10.0 6.6 6.0 76 1.8 SE 13 20 7 11 1024.8 1024.8 0.0
30/07:30pm 9.6 6.9 5.4 75 1.9 SSE 9 17 5 9 1024.8 1024.8 0.0
30/07:00pm 9.6 6.2 5.8 77 1.7 SE 13 19 7 10 1024.8 1024.8 0.0
30/06:30pm 9.6 7.4 6.3 80 1.5 SE 7 11 4 6 1024.8 1024.8 0.0
30/06:00pm 9.8 7.2 6.0 77 1.7 S 9 15 5 8 1024.6 1024.6 0.0
30/05:30pm 9.8 7.6 6.0 77 1.8 SSE 7 9 4 5 1024.6 1024.6 0.0
30/05:00pm 9.8 6.0 5.8 76 1.8 SSE 15 24 8 13 1024.8 1024.8 0.0
30/04:30pm 10.3 5.8 6.3 76 1.9 SSE 19 22 10 12 1024.7 1024.7 0.0
30/04:00pm 10.4 7.4 6.0 74 2.0 SSE 11 17 6 9 1024.8 1024.8 0.0
30/03:30pm 10.3 7.0 6.5 77 1.8 SSE 13 22 7 12 1024.9 1024.9 0.0
30/03:00pm 10.8 7.5 6.6 75 2.0 S 13 17 7 9 1025.0 1025.0 0.0
30/02:30pm 11.1 8.6 6.5 73 2.2 SSW 9 13 5 7 1025.1 1025.1 0.0
30/02:00pm 11.3 7.9 6.0 70 2.5 S 13 17 7 9 1025.1 1025.1 0.0
30/01:30pm 11.4 7.7 6.1 70 2.5 S 15 22 8 12 1025.3 1025.3 0.0
30/01:00pm 11.2 7.0 5.7 69 2.5 SSE 17 22 9 12 1025.6 1025.7 0.0
30/12:30pm 10.6 9.3 7.7 82 1.4 SSE 4 13 2 7 1026.0 1026.1 0.0
30/12:00pm 10.2 8.5 7.6 84 1.2 S 6 9 3 5 1026.5 1026.6 0.0
30/11:30am 10.4 8.3 8.3 87 1.0 S 9 15 5 8 1026.8 1026.9 0.0
30/11:00am 10.0 5.6 6.5 79 1.6 SE 19 26 10 14 1027.2 1027.3 0.0
30/10:30am 10.6 6.5 6.4 75 2.0 S 17 22 9 12 1027.1 1027.2 0.0
30/10:00am 11.0 6.4 6.6 74 2.1 SSE 20 30 11 16 1027.3 1027.4 0.0
30/09:30am 10.2 5.6 6.4 77 1.8 SSE 20 30 11 16 1027.4 1027.5 0.0
30/09:00am 10.4 6.1 7.1 80 1.6 SSE 19 26 10 14 1027.3 1027.4 1.0
30/08:30am 9.9 4.3 7.0 82 1.4 SSE 26 33 14 18 1027.3 1027.4 1.0
30/08:00am 9.8 5.5 6.9 82 1.4 SSE 19 26 10 14 1027.2 1027.3 1.0
30/07:30am 9.7 5.2 7.1 84 1.2 SSE 20 28 11 15 1027.0 1027.1 1.0
30/07:00am 9.4 5.2 7.3 87 1.0 SE 19 24 10 13 1026.7 1026.8 1.0
30/06:30am 9.3 6.2 7.1 86 1.0 S 13 20 7 11 1026.5 1026.6 1.0
30/06:00am 9.0 4.5 6.8 86 1.0 SSE 20 26 11 14 1026.4 1026.5 1.0
30/05:30am 9.4 6.3 7.2 86 1.0 S 13 19 7 10 1026.2 1026.3 1.0
30/05:00am 9.0 3.4 7.1 88 0.9 SSE 26 32 14 17 1026.2 1026.3 1.0
30/04:30am 9.0 4.5 7.1 88 0.9 SSE 20 28 11 15 1026.1 1026.2 1.0
30/04:00am 9.5 5.6 7.3 86 1.0 SE 17 24 9 13 1026.3 1026.4 1.0
30/03:30am 9.6 4.8 7.2 85 1.1 SSE 22 28 12 15 1026.6 1026.7 0.8
30/03:00am 9.5 4.9 6.6 82 1.3 SSE 20 28 11 15 1026.7 1026.8 0.8
30/02:30am 10.1 5.6 6.3 77 1.8 S 19 28 10 15 1027.0 1027.1 0.8
30/02:00am 9.9 6.0 7.2 83 1.3 S 17 26 9 14 1027.2 1027.3 0.8
30/01:30am 10.1 5.5 8.0 87 1.0 SSE 22 30 12 16 1027.5 1027.6 0.8
30/01:00am 9.9 5.3 8.0 88 0.9 SSE 22 32 12 17 1027.7 1027.8 0.8
30/12:30am 9.6 4.6 7.9 89 0.8 SSE 24 37 13 20 1027.6 1027.7 0.8
30/12:00am 9.8 4.9 8.4 91 0.7 SSE 24 32 13 17 1027.5 1027.6 0.8

Other Formats:

Comma delimited format used in spreadsheet applications
http://www.bom.gov.au/fwo/IDV60801/IDV60801.94830.axf

JavaScript Object Notation format (JSON) in row-major order
http://www.bom.gov.au/fwo/IDV60801/IDV60801.94830.json